Hauptseite
METAR-TAF:

METAR-TAF

Flughäfen :

Enugu, Nigeria

Breite: 06-28N, Länge: 007-33E, Höhe: 137 m

Beobachtung

Neuester Wetterbericht von vor 41 Minuten, um 04:00 UTC
Windstille
Temperatur 24°C
Luftfeuchtigkeit 94%
Luftdruck 1012 hPa
Sichtweite 10 km oder mehr
Aufgelockert bewölkt in der Höhe von 900 ft

METAR: DNEN 250400Z 00000KT 9999 SCT009 24/23 Q1012 NOSIG

Zeit: 05:41 (04:41 UTC)


TAF: fehlend

Wetterbeobachtungen und Prognosen von mehr als 4000 Flughäfen (METAR und TAF Bericht).

Die verfügbaren Stationen werden durch gelbe und rote Markierungen auf der Karte dargestellt.

Führen Sie die Maus auf sie, um den Namen der Station zu sehen.

Darauf klicken, um die Beobachtung von Wetterbeobachtungen und Prognosen zu sehen.

Um die Karte zu ändern : klicken Sie auf den grünen Tasten mit einem schwarzen Kreuz Zum Vergrößern, auf den grünen Button mit einem Gedankenstrich zu verkleinern, oder auf die grünen Pfeile für benachbarte Karten.


METAR-TAF: